sensor_id;sensor_type;location;lat;lon;timestamp;P1;durP1;ratioP1;P2;durP2;ratioP2
39324;SDS011;25037;49.488;9.900;2022-08-19T00:01:21;20.70;;;18.60;;
39324;SDS011;25037;49.488;9.900;2022-08-19T00:03:47;19.08;;;17.17;;
39324;SDS011;25037;49.488;9.900;2022-08-19T00:06:13;20.38;;;18.27;;
39324;SDS011;25037;49.488;9.900;2022-08-19T00:08:40;20.58;;;18.42;;
39324;SDS011;25037;49.488;9.900;2022-08-19T00:11:06;19.77;;;17.67;;
39324;SDS011;25037;49.488;9.900;2022-08-19T00:13:32;19.63;;;17.38;;
39324;SDS011;25037;49.488;9.900;2022-08-19T00:15:58;20.70;;;18.60;;
39324;SDS011;25037;49.488;9.900;2022-08-19T00:18:24;20.25;;;18.02;;
39324;SDS011;25037;49.488;9.900;2022-08-19T00:20:50;21.63;;;19.42;;
39324;SDS011;25037;49.488;9.900;2022-08-19T00:23:16;23.98;;;19.58;;
39324;SDS011;25037;49.488;9.900;2022-08-19T00:25:41;20.40;;;18.33;;
39324;SDS011;25037;49.488;9.900;2022-08-19T00:28:07;20.77;;;18.55;;
39324;SDS011;25037;49.488;9.900;2022-08-19T00:30:32;20.75;;;18.60;;
39324;SDS011;25037;49.488;9.900;2022-08-19T00:32:58;25.85;;;19.55;;
39324;SDS011;25037;49.488;9.900;2022-08-19T00:35:24;20.73;;;18.52;;
39324;SDS011;25037;49.488;9.900;2022-08-19T00:37:52;22.90;;;20.38;;
39324;SDS011;25037;49.488;9.900;2022-08-19T00:40:18;18.95;;;16.98;;
39324;SDS011;25037;49.488;9.900;2022-08-19T00:42:45;19.23;;;17.05;;
39324;SDS011;25037;49.488;9.900;2022-08-19T00:45:12;19.50;;;17.50;;
39324;SDS011;25037;49.488;9.900;2022-08-19T00:47:43;19.08;;;17.08;;
39324;SDS011;25037;49.488;9.900;2022-08-19T00:50:10;21.58;;;17.65;;
39324;SDS011;25037;49.488;9.900;2022-08-19T00:52:39;20.80;;;18.60;;
39324;SDS011;25037;49.488;9.900;2022-08-19T00:55:10;23.40;;;18.38;;
39324;SDS011;25037;49.488;9.900;2022-08-19T00:57:40;18.90;;;16.88;;
39324;SDS011;25037;49.488;9.900;2022-08-19T01:00:10;19.77;;;17.77;;
39324;SDS011;25037;49.488;9.900;2022-08-19T01:02:39;19.63;;;17.63;;
39324;SDS011;25037;49.488;9.900;2022-08-19T01:05:06;18.90;;;15.80;;
39324;SDS011;25037;49.488;9.900;2022-08-19T01:07:35;22.17;;;18.27;;
39324;SDS011;25037;49.488;9.900;2022-08-19T01:10:04;18.30;;;16.35;;
39324;SDS011;25037;49.488;9.900;2022-08-19T01:12:31;20.90;;;18.35;;
39324;SDS011;25037;49.488;9.900;2022-08-19T01:14:57;18.95;;;17.05;;
39324;SDS011;25037;49.488;9.900;2022-08-19T01:17:24;20.58;;;18.10;;
39324;SDS011;25037;49.488;9.900;2022-08-19T01:19:50;20.58;;;17.50;;
39324;SDS011;25037;49.488;9.900;2022-08-19T01:25:19;19.90;;;17.80;;
39324;SDS011;25037;49.488;9.900;2022-08-19T01:27:48;17.17;;;15.38;;
39324;SDS011;25037;49.488;9.900;2022-08-19T01:30:16;19.85;;;17.15;;
39324;SDS011;25037;49.488;9.900;2022-08-19T01:32:44;19.23;;;17.13;;
39324;SDS011;25037;49.488;9.900;2022-08-19T01:35:10;19.60;;;17.70;;
39324;SDS011;25037;49.488;9.900;2022-08-19T01:37:48;17.50;;;15.57;;
39324;SDS011;25037;49.488;9.900;2022-08-19T01:40:26;18.45;;;16.45;;
39324;SDS011;25037;49.488;9.900;2022-08-19T01:42:57;18.60;;;16.63;;
39324;SDS011;25037;49.488;9.900;2022-08-19T01:45:24;20.48;;;18.25;;
39324;SDS011;25037;49.488;9.900;2022-08-19T01:47:51;19.38;;;17.35;;
39324;SDS011;25037;49.488;9.900;2022-08-19T01:50:17;19.48;;;17.33;;
39324;SDS011;25037;49.488;9.900;2022-08-19T01:52:43;20.27;;;18.17;;
39324;SDS011;25037;49.488;9.900;2022-08-19T01:55:12;17.80;;;16.02;;
39324;SDS011;25037;49.488;9.900;2022-08-19T01:57:41;19.67;;;17.63;;
39324;SDS011;25037;49.488;9.900;2022-08-19T02:00:10;18.52;;;16.55;;
39324;SDS011;25037;49.488;9.900;2022-08-19T02:02:38;23.73;;;17.65;;
39324;SDS011;25037;49.488;9.900;2022-08-19T02:05:04;18.65;;;16.73;;
39324;SDS011;25037;49.488;9.900;2022-08-19T02:07:31;18.80;;;16.80;;
39324;SDS011;25037;49.488;9.900;2022-08-19T02:09:57;20.05;;;17.67;;
39324;SDS011;25037;49.488;9.900;2022-08-19T02:12:23;18.27;;;16.38;;
39324;SDS011;25037;49.488;9.900;2022-08-19T02:14:48;19.35;;;17.15;;
39324;SDS011;25037;49.488;9.900;2022-08-19T02:17:14;20.15;;;18.08;;
39324;SDS011;25037;49.488;9.900;2022-08-19T02:19:39;18.80;;;16.80;;
39324;SDS011;25037;49.488;9.900;2022-08-19T02:22:05;20.55;;;17.83;;
39324;SDS011;25037;49.488;9.900;2022-08-19T02:24:31;18.70;;;16.80;;
39324;SDS011;25037;49.488;9.900;2022-08-19T02:26:56;19.17;;;17.17;;
39324;SDS011;25037;49.488;9.900;2022-08-19T02:29:23;19.17;;;17.17;;
39324;SDS011;25037;49.488;9.900;2022-08-19T02:31:49;19.70;;;17.70;;
39324;SDS011;25037;49.488;9.900;2022-08-19T02:34:15;19.17;;;16.70;;
39324;SDS011;25037;49.488;9.900;2022-08-19T02:36:41;18.60;;;16.55;;
39324;SDS011;25037;49.488;9.900;2022-08-19T02:39:07;17.55;;;15.65;;
39324;SDS011;25037;49.488;9.900;2022-08-19T02:41:33;19.40;;;17.42;;
39324;SDS011;25037;49.488;9.900;2022-08-19T02:43:59;21.23;;;18.88;;
39324;SDS011;25037;49.488;9.900;2022-08-19T02:46:30;17.85;;;15.98;;
39324;SDS011;25037;49.488;9.900;2022-08-19T02:49:01;19.10;;;17.20;;
39324;SDS011;25037;49.488;9.900;2022-08-19T02:51:34;19.35;;;17.38;;
39324;SDS011;25037;49.488;9.900;2022-08-19T02:54:03;17.90;;;16.02;;
39324;SDS011;25037;49.488;9.900;2022-08-19T02:56:29;18.92;;;16.98;;
39324;SDS011;25037;49.488;9.900;2022-08-19T02:58:55;18.73;;;16.73;;
39324;SDS011;25037;49.488;9.900;2022-08-19T03:03:52;18.58;;;16.67;;
39324;SDS011;25037;49.488;9.900;2022-08-19T03:06:18;21.17;;;16.77;;
39324;SDS011;25037;49.488;9.900;2022-08-19T03:08:45;19.83;;;17.27;;
39324;SDS011;25037;49.488;9.900;2022-08-19T03:11:13;18.98;;;17.08;;
39324;SDS011;25037;49.488;9.900;2022-08-19T03:13:40;20.40;;;17.17;;
39324;SDS011;25037;49.488;9.900;2022-08-19T03:16:05;19.52;;;17.25;;
39324;SDS011;25037;49.488;9.900;2022-08-19T03:18:31;20.05;;;16.15;;
39324;SDS011;25037;49.488;9.900;2022-08-19T03:20:56;18.98;;;17.08;;
39324;SDS011;25037;49.488;9.900;2022-08-19T03:23:22;18.83;;;16.30;;
39324;SDS011;25037;49.488;9.900;2022-08-19T03:25:49;18.90;;;16.90;;
39324;SDS011;25037;49.488;9.900;2022-08-19T03:28:16;20.27;;;17.85;;
39324;SDS011;25037;49.488;9.900;2022-08-19T03:30:42;20.90;;;16.90;;
39324;SDS011;25037;49.488;9.900;2022-08-19T03:33:21;19.38;;;17.08;;
39324;SDS011;25037;49.488;9.900;2022-08-19T03:35:47;18.55;;;16.60;;
39324;SDS011;25037;49.488;9.900;2022-08-19T03:38:23;19.80;;;17.58;;
39324;SDS011;25037;49.488;9.900;2022-08-19T03:40:49;20.45;;;17.20;;
39324;SDS011;25037;49.488;9.900;2022-08-19T03:43:14;18.15;;;16.27;;
39324;SDS011;25037;49.488;9.900;2022-08-19T03:45:43;19.17;;;16.67;;
39324;SDS011;25037;49.488;9.900;2022-08-19T03:48:09;16.92;;;15.23;;
39324;SDS011;25037;49.488;9.900;2022-08-19T03:50:38;19.45;;;17.40;;
39324;SDS011;25037;49.488;9.900;2022-08-19T03:53:04;18.15;;;15.93;;
39324;SDS011;25037;49.488;9.900;2022-08-19T03:55:31;20.23;;;17.55;;
39324;SDS011;25037;49.488;9.900;2022-08-19T03:57:56;21.00;;;17.90;;
39324;SDS011;25037;49.488;9.900;2022-08-19T04:00:22;21.58;;;18.33;;
39324;SDS011;25037;49.488;9.900;2022-08-19T04:02:47;18.80;;;16.88;;
39324;SDS011;25037;49.488;9.900;2022-08-19T04:05:13;19.38;;;17.13;;
39324;SDS011;25037;49.488;9.900;2022-08-19T04:07:39;18.38;;;16.45;;
39324;SDS011;25037;49.488;9.900;2022-08-19T04:10:05;19.15;;;17.25;;
39324;SDS011;25037;49.488;9.900;2022-08-19T04:12:31;19.45;;;16.85;;
39324;SDS011;25037;49.488;9.900;2022-08-19T04:14:57;18.65;;;16.58;;
39324;SDS011;25037;49.488;9.900;2022-08-19T04:17:23;18.38;;;16.45;;
39324;SDS011;25037;49.488;9.900;2022-08-19T04:19:48;17.38;;;15.73;;
39324;SDS011;25037;49.488;9.900;2022-08-19T04:22:14;18.73;;;16.17;;
39324;SDS011;25037;49.488;9.900;2022-08-19T04:24:39;16.90;;;14.88;;
39324;SDS011;25037;49.488;9.900;2022-08-19T04:27:05;18.17;;;15.75;;
39324;SDS011;25037;49.488;9.900;2022-08-19T04:29:31;19.55;;;16.90;;
39324;SDS011;25037;49.488;9.900;2022-08-19T04:31:57;19.58;;;17.60;;
39324;SDS011;25037;49.488;9.900;2022-08-19T04:34:25;19.15;;;15.77;;
39324;SDS011;25037;49.488;9.900;2022-08-19T04:36:53;19.30;;;17.30;;
39324;SDS011;25037;49.488;9.900;2022-08-19T04:39:22;18.13;;;16.08;;
39324;SDS011;25037;49.488;9.900;2022-08-19T04:42:10;17.30;;;15.55;;
39324;SDS011;25037;49.488;9.900;2022-08-19T04:44:54;18.08;;;16.17;;
39324;SDS011;25037;49.488;9.900;2022-08-19T04:47:20;19.10;;;17.10;;
39324;SDS011;25037;49.488;9.900;2022-08-19T04:49:45;19.95;;;17.30;;
39324;SDS011;25037;49.488;9.900;2022-08-19T04:52:11;17.20;;;15.40;;
39324;SDS011;25037;49.488;9.900;2022-08-19T04:54:37;20.33;;;17.23;;
39324;SDS011;25037;49.488;9.900;2022-08-19T04:57:03;17.77;;;15.88;;
39324;SDS011;25037;49.488;9.900;2022-08-19T04:59:31;19.13;;;17.10;;
39324;SDS011;25037;49.488;9.900;2022-08-19T05:01:58;16.38;;;14.68;;
39324;SDS011;25037;49.488;9.900;2022-08-19T05:04:23;18.13;;;15.82;;
39324;SDS011;25037;49.488;9.900;2022-08-19T05:06:49;17.85;;;16.05;;
39324;SDS011;25037;49.488;9.900;2022-08-19T05:09:17;15.40;;;13.73;;
39324;SDS011;25037;49.488;9.900;2022-08-19T05:11:43;17.98;;;15.30;;
39324;SDS011;25037;49.488;9.900;2022-08-19T05:14:09;16.85;;;14.90;;
39324;SDS011;25037;49.488;9.900;2022-08-19T05:16:37;16.23;;;14.52;;
39324;SDS011;25037;49.488;9.900;2022-08-19T05:19:02;16.35;;;14.65;;
39324;SDS011;25037;49.488;9.900;2022-08-19T05:21:46;17.13;;;15.13;;
39324;SDS011;25037;49.488;9.900;2022-08-19T05:24:31;17.10;;;15.40;;
39324;SDS011;25037;49.488;9.900;2022-08-19T05:26:58;16.98;;;15.27;;
39324;SDS011;25037;49.488;9.900;2022-08-19T05:29:27;16.38;;;13.82;;
39324;SDS011;25037;49.488;9.900;2022-08-19T05:31:54;17.42;;;14.93;;
39324;SDS011;25037;49.488;9.900;2022-08-19T05:34:21;16.98;;;15.18;;
39324;SDS011;25037;49.488;9.900;2022-08-19T05:36:50;21.40;;;15.23;;
39324;SDS011;25037;49.488;9.900;2022-08-19T05:39:22;20.30;;;16.95;;
39324;SDS011;25037;49.488;9.900;2022-08-19T05:41:50;16.63;;;14.93;;
39324;SDS011;25037;49.488;9.900;2022-08-19T05:44:19;16.50;;;14.80;;
39324;SDS011;25037;49.488;9.900;2022-08-19T05:46:46;15.88;;;14.13;;
39324;SDS011;25037;49.488;9.900;2022-08-19T05:49:13;16.15;;;14.45;;
39324;SDS011;25037;49.488;9.900;2022-08-19T05:51:40;22.05;;;14.57;;
39324;SDS011;25037;49.488;9.900;2022-08-19T05:54:06;16.52;;;14.77;;
39324;SDS011;25037;49.488;9.900;2022-08-19T05:56:33;20.55;;;15.15;;
39324;SDS011;25037;49.488;9.900;2022-08-19T05:59:03;17.25;;;14.38;;
39324;SDS011;25037;49.488;9.900;2022-08-19T06:01:33;19.58;;;15.93;;
39324;SDS011;25037;49.488;9.900;2022-08-19T06:03:59;20.10;;;15.52;;
39324;SDS011;25037;49.488;9.900;2022-08-19T06:06:25;16.58;;;14.80;;
39324;SDS011;25037;49.488;9.900;2022-08-19T06:08:50;16.85;;;14.43;;
39324;SDS011;25037;49.488;9.900;2022-08-19T06:11:20;15.80;;;14.15;;
39324;SDS011;25037;49.488;9.900;2022-08-19T06:16:18;16.95;;;14.65;;
39324;SDS011;25037;49.488;9.900;2022-08-19T06:18:51;15.73;;;14.10;;
39324;SDS011;25037;49.488;9.900;2022-08-19T06:21:18;16.48;;;14.80;;
39324;SDS011;25037;49.488;9.900;2022-08-19T06:23:45;18.45;;;13.68;;
39324;SDS011;25037;49.488;9.900;2022-08-19T06:26:12;16.88;;;14.68;;
39324;SDS011;25037;49.488;9.900;2022-08-19T06:28:41;16.95;;;15.10;;
39324;SDS011;25037;49.488;9.900;2022-08-19T06:31:11;17.05;;;15.20;;
39324;SDS011;25037;49.488;9.900;2022-08-19T06:33:41;14.80;;;13.30;;
39324;SDS011;25037;49.488;9.900;2022-08-19T06:36:44;15.27;;;13.73;;
39324;SDS011;25037;49.488;9.900;2022-08-19T06:39:08;16.02;;;14.38;;
39324;SDS011;25037;49.488;9.900;2022-08-19T06:41:38;17.67;;;15.85;;
39324;SDS011;25037;49.488;9.900;2022-08-19T06:44:05;15.15;;;13.60;;
39324;SDS011;25037;49.488;9.900;2022-08-19T06:46:31;16.58;;;14.77;;
39324;SDS011;25037;49.488;9.900;2022-08-19T06:48:57;16.50;;;13.43;;
39324;SDS011;25037;49.488;9.900;2022-08-19T06:51:24;14.52;;;13.02;;
39324;SDS011;25037;49.488;9.900;2022-08-19T06:53:51;15.50;;;13.40;;
39324;SDS011;25037;49.488;9.900;2022-08-19T06:56:19;14.38;;;12.95;;
39324;SDS011;25037;49.488;9.900;2022-08-19T06:58:48;14.40;;;12.90;;
39324;SDS011;25037;49.488;9.900;2022-08-19T07:01:17;13.90;;;12.55;;
39324;SDS011;25037;49.488;9.900;2022-08-19T07:03:44;15.02;;;13.48;;
39324;SDS011;25037;49.488;9.900;2022-08-19T07:06:13;14.73;;;13.20;;
39324;SDS011;25037;49.488;9.900;2022-08-19T07:08:42;16.75;;;14.07;;
39324;SDS011;25037;49.488;9.900;2022-08-19T07:11:10;14.57;;;13.07;;
39324;SDS011;25037;49.488;9.900;2022-08-19T07:13:38;15.80;;;14.10;;
39324;SDS011;25037;49.488;9.900;2022-08-19T07:16:04;15.07;;;13.57;;
39324;SDS011;25037;49.488;9.900;2022-08-19T07:18:35;14.25;;;12.70;;
39324;SDS011;25037;49.488;9.900;2022-08-19T07:21:02;14.63;;;13.13;;
39324;SDS011;25037;49.488;9.900;2022-08-19T07:23:29;15.77;;;12.77;;
39324;SDS011;25037;49.488;9.900;2022-08-19T07:25:55;14.30;;;12.80;;
39324;SDS011;25037;49.488;9.900;2022-08-19T07:28:21;15.60;;;13.18;;
39324;SDS011;25037;49.488;9.900;2022-08-19T07:30:47;13.32;;;11.82;;
39324;SDS011;25037;49.488;9.900;2022-08-19T07:33:14;14.55;;;13.10;;
39324;SDS011;25037;49.488;9.900;2022-08-19T07:35:40;13.45;;;11.93;;
39324;SDS011;25037;49.488;9.900;2022-08-19T07:38:06;14.93;;;12.82;;
39324;SDS011;25037;49.488;9.900;2022-08-19T07:40:32;15.13;;;13.52;;
39324;SDS011;25037;49.488;9.900;2022-08-19T07:42:57;14.82;;;13.27;;
39324;SDS011;25037;49.488;9.900;2022-08-19T07:45:23;16.30;;;13.60;;
39324;SDS011;25037;49.488;9.900;2022-08-19T07:47:49;13.20;;;10.90;;
39324;SDS011;25037;49.488;9.900;2022-08-19T07:50:15;12.93;;;11.57;;
39324;SDS011;25037;49.488;9.900;2022-08-19T07:52:43;15.95;;;12.48;;
39324;SDS011;25037;49.488;9.900;2022-08-19T07:55:09;13.40;;;12.00;;
39324;SDS011;25037;49.488;9.900;2022-08-19T07:57:35;14.18;;;12.77;;
39324;SDS011;25037;49.488;9.900;2022-08-19T08:00:01;15.23;;;12.90;;
39324;SDS011;25037;49.488;9.900;2022-08-19T08:02:28;14.25;;;12.73;;
39324;SDS011;25037;49.488;9.900;2022-08-19T08:04:53;13.68;;;11.98;;
39324;SDS011;25037;49.488;9.900;2022-08-19T08:07:38;13.02;;;11.73;;
39324;SDS011;25037;49.488;9.900;2022-08-19T08:10:22;13.65;;;11.68;;
39324;SDS011;25037;49.488;9.900;2022-08-19T08:12:47;13.32;;;11.95;;
39324;SDS011;25037;49.488;9.900;2022-08-19T08:15:15;14.07;;;12.68;;
39324;SDS011;25037;49.488;9.900;2022-08-19T08:17:41;13.98;;;11.93;;
39324;SDS011;25037;49.488;9.900;2022-08-19T08:20:08;14.00;;;11.63;;
39324;SDS011;25037;49.488;9.900;2022-08-19T08:22:34;13.18;;;11.52;;
39324;SDS011;25037;49.488;9.900;2022-08-19T08:25:19;13.18;;;11.93;;
39324;SDS011;25037;49.488;9.900;2022-08-19T08:27:47;12.80;;;11.50;;
39324;SDS011;25037;49.488;9.900;2022-08-19T08:30:22;12.18;;;11.00;;
39324;SDS011;25037;49.488;9.900;2022-08-19T08:32:49;13.48;;;10.95;;
39324;SDS011;25037;49.488;9.900;2022-08-19T08:35:16;13.55;;;12.25;;
39324;SDS011;25037;49.488;9.900;2022-08-19T08:37:44;12.65;;;10.98;;
39324;SDS011;25037;49.488;9.900;2022-08-19T08:40:23;11.75;;;10.55;;
39324;SDS011;25037;49.488;9.900;2022-08-19T08:45:55;13.20;;;11.88;;
39324;SDS011;25037;49.488;9.900;2022-08-19T08:51:07;13.00;;;11.65;;
39324;SDS011;25037;49.488;9.900;2022-08-19T08:53:38;13.40;;;12.00;;
39324;SDS011;25037;49.488;9.900;2022-08-19T08:56:06;12.00;;;10.85;;
39324;SDS011;25037;49.488;9.900;2022-08-19T08:58:43;12.45;;;11.20;;
39324;SDS011;25037;49.488;9.900;2022-08-19T09:01:31;11.13;;;10.02;;
39324;SDS011;25037;49.488;9.900;2022-08-19T09:03:57;12.30;;;10.95;;
39324;SDS011;25037;49.488;9.900;2022-08-19T09:06:32;11.85;;;10.63;;
39324;SDS011;25037;49.488;9.900;2022-08-19T09:09:10;12.13;;;10.80;;
39324;SDS011;25037;49.488;9.900;2022-08-19T09:12:06;15.43;;;11.20;;
39324;SDS011;25037;49.488;9.900;2022-08-19T09:17:17;13.80;;;10.52;;
39324;SDS011;25037;49.488;9.900;2022-08-19T09:19:48;13.88;;;11.27;;
39324;SDS011;25037;49.488;9.900;2022-08-19T09:22:16;11.13;;;9.98;;
39324;SDS011;25037;49.488;9.900;2022-08-19T09:24:42;11.48;;;10.27;;
39324;SDS011;25037;49.488;9.900;2022-08-19T09:27:07;11.95;;;10.48;;
39324;SDS011;25037;49.488;9.900;2022-08-19T09:29:33;11.13;;;10.10;;
39324;SDS011;25037;49.488;9.900;2022-08-19T09:31:59;13.82;;;10.95;;
39324;SDS011;25037;49.488;9.900;2022-08-19T09:34:24;11.25;;;10.07;;
39324;SDS011;25037;49.488;9.900;2022-08-19T09:36:50;11.85;;;10.60;;
39324;SDS011;25037;49.488;9.900;2022-08-19T09:39:20;11.48;;;10.40;;
39324;SDS011;25037;49.488;9.900;2022-08-19T09:41:46;12.27;;;9.50;;
39324;SDS011;25037;49.488;9.900;2022-08-19T09:44:12;11.40;;;10.27;;
39324;SDS011;25037;49.488;9.900;2022-08-19T09:46:38;11.07;;;9.93;;
39324;SDS011;25037;49.488;9.900;2022-08-19T09:49:03;11.43;;;10.32;;
39324;SDS011;25037;49.488;9.900;2022-08-19T09:51:31;11.77;;;10.60;;
39324;SDS011;25037;49.488;9.900;2022-08-19T09:53:58;12.88;;;10.68;;
39324;SDS011;25037;49.488;9.900;2022-08-19T09:56:26;10.98;;;9.90;;
39324;SDS011;25037;49.488;9.900;2022-08-19T09:58:52;10.82;;;9.70;;
39324;SDS011;25037;49.488;9.900;2022-08-19T10:01:19;10.60;;;9.50;;
39324;SDS011;25037;49.488;9.900;2022-08-19T10:03:51;11.40;;;10.07;;
39324;SDS011;25037;49.488;9.900;2022-08-19T10:06:20;11.33;;;10.20;;
39324;SDS011;25037;49.488;9.900;2022-08-19T10:08:46;11.25;;;10.15;;
39324;SDS011;25037;49.488;9.900;2022-08-19T10:11:12;11.25;;;10.25;;
39324;SDS011;25037;49.488;9.900;2022-08-19T10:13:41;11.05;;;10.05;;
39324;SDS011;25037;49.488;9.900;2022-08-19T10:16:09;10.82;;;9.73;;
39324;SDS011;25037;49.488;9.900;2022-08-19T10:18:37;11.95;;;10.75;;
39324;SDS011;25037;49.488;9.900;2022-08-19T10:21:07;11.85;;;10.63;;
39324;SDS011;25037;49.488;9.900;2022-08-19T10:23:39;11.20;;;10.15;;
39324;SDS011;25037;49.488;9.900;2022-08-19T10:26:06;12.65;;;10.90;;
39324;SDS011;25037;49.488;9.900;2022-08-19T10:28:33;12.27;;;10.73;;
39324;SDS011;25037;49.488;9.900;2022-08-19T10:31:06;12.18;;;10.23;;
39324;SDS011;25037;49.488;9.900;2022-08-19T10:33:40;11.52;;;10.32;;
39324;SDS011;25037;49.488;9.900;2022-08-19T10:36:07;11.50;;;10.32;;
39324;SDS011;25037;49.488;9.900;2022-08-19T10:38:35;12.10;;;10.90;;
39324;SDS011;25037;49.488;9.900;2022-08-19T10:41:09;12.50;;;11.30;;
39324;SDS011;25037;49.488;9.900;2022-08-19T10:43:36;12.05;;;10.95;;
39324;SDS011;25037;49.488;9.900;2022-08-19T10:46:03;12.25;;;10.93;;
39324;SDS011;25037;49.488;9.900;2022-08-19T10:48:30;12.88;;;11.55;;
39324;SDS011;25037;49.488;9.900;2022-08-19T10:50:57;12.65;;;11.35;;
39324;SDS011;25037;49.488;9.900;2022-08-19T10:53:41;12.13;;;10.93;;
39324;SDS011;25037;49.488;9.900;2022-08-19T10:56:07;13.52;;;10.05;;
39324;SDS011;25037;49.488;9.900;2022-08-19T10:58:51;12.02;;;10.68;;
39324;SDS011;25037;49.488;9.900;2022-08-19T11:01:17;14.05;;;11.30;;
39324;SDS011;25037;49.488;9.900;2022-08-19T11:03:42;13.07;;;10.90;;
39324;SDS011;25037;49.488;9.900;2022-08-19T11:06:10;13.40;;;8.65;;
39324;SDS011;25037;49.488;9.900;2022-08-19T11:08:36;9.13;;;7.65;;
39324;SDS011;25037;49.488;9.900;2022-08-19T11:11:05;10.77;;;7.38;;
39324;SDS011;25037;49.488;9.900;2022-08-19T11:13:33;11.80;;;7.80;;
39324;SDS011;25037;49.488;9.900;2022-08-19T11:16:02;10.60;;;7.20;;
39324;SDS011;25037;49.488;9.900;2022-08-19T11:18:31;8.55;;;7.15;;
39324;SDS011;25037;49.488;9.900;2022-08-19T11:21:05;8.52;;;7.47;;
39324;SDS011;25037;49.488;9.900;2022-08-19T11:23:45;8.18;;;7.03;;
39324;SDS011;25037;49.488;9.900;2022-08-19T11:26:13;8.20;;;6.97;;
39324;SDS011;25037;49.488;9.900;2022-08-19T11:28:39;10.45;;;8.40;;
39324;SDS011;25037;49.488;9.900;2022-08-19T11:31:12;8.98;;;7.70;;
39324;SDS011;25037;49.488;9.900;2022-08-19T11:33:40;9.93;;;7.13;;
39324;SDS011;25037;49.488;9.900;2022-08-19T11:36:07;7.43;;;6.40;;
39324;SDS011;25037;49.488;9.900;2022-08-19T11:38:33;9.68;;;6.32;;
39324;SDS011;25037;49.488;9.900;2022-08-19T11:41:01;8.90;;;6.13;;
39324;SDS011;25037;49.488;9.900;2022-08-19T11:43:28;7.25;;;6.43;;
39324;SDS011;25037;49.488;9.900;2022-08-19T11:45:55;8.05;;;6.03;;
39324;SDS011;25037;49.488;9.900;2022-08-19T11:48:21;11.75;;;6.90;;
39324;SDS011;25037;49.488;9.900;2022-08-19T11:50:48;8.18;;;6.40;;
39324;SDS011;25037;49.488;9.900;2022-08-19T11:53:14;6.70;;;5.53;;
39324;SDS011;25037;49.488;9.900;2022-08-19T11:55:41;7.20;;;4.78;;
39324;SDS011;25037;49.488;9.900;2022-08-19T11:58:07;6.95;;;5.18;;
39324;SDS011;25037;49.488;9.900;2022-08-19T12:00:33;6.53;;;4.50;;
39324;SDS011;25037;49.488;9.900;2022-08-19T12:03:01;4.93;;;4.30;;
39324;SDS011;25037;49.488;9.900;2022-08-19T12:05:27;7.47;;;4.95;;
39324;SDS011;25037;49.488;9.900;2022-08-19T12:07:52;5.55;;;4.05;;
39324;SDS011;25037;49.488;9.900;2022-08-19T12:10:19;6.93;;;3.45;;
39324;SDS011;25037;49.488;9.900;2022-08-19T12:12:45;5.93;;;4.00;;
39324;SDS011;25037;49.488;9.900;2022-08-19T12:15:11;3.88;;;3.35;;
39324;SDS011;25037;49.488;9.900;2022-08-19T12:17:37;5.88;;;3.70;;
39324;SDS011;25037;49.488;9.900;2022-08-19T12:20:03;7.22;;;3.55;;
39324;SDS011;25037;49.488;9.900;2022-08-19T12:22:30;6.20;;;3.70;;
39324;SDS011;25037;49.488;9.900;2022-08-19T12:24:56;5.75;;;3.05;;
39324;SDS011;25037;49.488;9.900;2022-08-19T12:27:23;4.82;;;3.25;;
39324;SDS011;25037;49.488;9.900;2022-08-19T12:29:48;3.92;;;3.28;;
39324;SDS011;25037;49.488;9.900;2022-08-19T12:32:14;4.35;;;3.40;;
39324;SDS011;25037;49.488;9.900;2022-08-19T12:34:40;4.78;;;3.30;;
39324;SDS011;25037;49.488;9.900;2022-08-19T12:37:06;5.63;;;3.33;;
39324;SDS011;25037;49.488;9.900;2022-08-19T12:39:36;5.65;;;3.00;;
39324;SDS011;25037;49.488;9.900;2022-08-19T12:42:03;5.43;;;3.17;;
39324;SDS011;25037;49.488;9.900;2022-08-19T12:44:29;4.63;;;3.13;;
39324;SDS011;25037;49.488;9.900;2022-08-19T12:46:56;4.25;;;3.10;;
39324;SDS011;25037;49.488;9.900;2022-08-19T12:49:22;4.38;;;3.40;;
39324;SDS011;25037;49.488;9.900;2022-08-19T12:51:47;4.93;;;3.08;;
39324;SDS011;25037;49.488;9.900;2022-08-19T12:54:13;4.53;;;3.03;;
39324;SDS011;25037;49.488;9.900;2022-08-19T12:56:39;4.03;;;2.78;;
39324;SDS011;25037;49.488;9.900;2022-08-19T12:59:05;4.45;;;2.65;;
39324;SDS011;25037;49.488;9.900;2022-08-19T13:01:33;4.57;;;3.15;;
39324;SDS011;25037;49.488;9.900;2022-08-19T13:03:59;3.67;;;2.70;;
39324;SDS011;25037;49.488;9.900;2022-08-19T13:06:25;4.90;;;3.38;;
39324;SDS011;25037;49.488;9.900;2022-08-19T13:08:51;4.53;;;2.88;;
39324;SDS011;25037;49.488;9.900;2022-08-19T13:11:17;4.53;;;2.70;;
39324;SDS011;25037;49.488;9.900;2022-08-19T13:13:45;4.13;;;3.05;;
39324;SDS011;25037;49.488;9.900;2022-08-19T13:16:13;4.57;;;2.58;;
39324;SDS011;25037;49.488;9.900;2022-08-19T13:18:39;3.13;;;2.42;;
39324;SDS011;25037;49.488;9.900;2022-08-19T13:21:07;4.63;;;2.80;;
39324;SDS011;25037;49.488;9.900;2022-08-19T13:23:34;4.28;;;2.60;;
39324;SDS011;25037;49.488;9.900;2022-08-19T13:26:03;3.20;;;2.67;;
39324;SDS011;25037;49.488;9.900;2022-08-19T13:28:31;3.72;;;2.38;;
39324;SDS011;25037;49.488;9.900;2022-08-19T13:31:21;4.93;;;2.08;;
39324;SDS011;25037;49.488;9.900;2022-08-19T13:34:07;3.67;;;2.15;;
39324;SDS011;25037;49.488;9.900;2022-08-19T13:36:33;2.75;;;2.05;;
39324;SDS011;25037;49.488;9.900;2022-08-19T13:39:00;4.82;;;2.13;;
39324;SDS011;25037;49.488;9.900;2022-08-19T13:41:26;3.47;;;2.28;;
39324;SDS011;25037;49.488;9.900;2022-08-19T13:43:52;6.22;;;3.05;;
39324;SDS011;25037;49.488;9.900;2022-08-19T13:46:19;3.10;;;2.40;;
39324;SDS011;25037;49.488;9.900;2022-08-19T13:48:44;3.75;;;2.10;;
39324;SDS011;25037;49.488;9.900;2022-08-19T13:51:11;4.10;;;2.00;;
39324;SDS011;25037;49.488;9.900;2022-08-19T13:53:37;3.95;;;1.95;;
39324;SDS011;25037;49.488;9.900;2022-08-19T13:56:06;3.22;;;2.10;;
39324;SDS011;25037;49.488;9.900;2022-08-19T13:58:34;2.55;;;2.03;;
39324;SDS011;25037;49.488;9.900;2022-08-19T14:00:59;2.95;;;1.92;;
39324;SDS011;25037;49.488;9.900;2022-08-19T14:03:26;4.50;;;2.20;;
39324;SDS011;25037;49.488;9.900;2022-08-19T14:05:51;4.82;;;2.35;;
39324;SDS011;25037;49.488;9.900;2022-08-19T14:08:17;3.55;;;2.20;;
39324;SDS011;25037;49.488;9.900;2022-08-19T14:10:43;4.78;;;2.30;;
39324;SDS011;25037;49.488;9.900;2022-08-19T14:13:10;3.60;;;1.58;;
39324;SDS011;25037;49.488;9.900;2022-08-19T14:15:37;4.50;;;3.22;;
39324;SDS011;25037;49.488;9.900;2022-08-19T14:18:03;3.85;;;2.70;;
39324;SDS011;25037;49.488;9.900;2022-08-19T14:20:28;3.65;;;2.20;;
39324;SDS011;25037;49.488;9.900;2022-08-19T14:22:54;2.47;;;2.28;;
39324;SDS011;25037;49.488;9.900;2022-08-19T14:25:21;2.72;;;2.20;;
39324;SDS011;25037;49.488;9.900;2022-08-19T14:27:50;3.22;;;2.30;;
39324;SDS011;25037;49.488;9.900;2022-08-19T14:30:17;4.25;;;3.55;;
39324;SDS011;25037;49.488;9.900;2022-08-19T14:32:44;4.00;;;2.90;;
39324;SDS011;25037;49.488;9.900;2022-08-19T14:35:11;3.17;;;2.88;;
39324;SDS011;25037;49.488;9.900;2022-08-19T14:37:38;4.50;;;3.15;;
39324;SDS011;25037;49.488;9.900;2022-08-19T14:40:05;3.60;;;2.30;;
39324;SDS011;25037;49.488;9.900;2022-08-19T14:42:31;4.93;;;3.53;;
39324;SDS011;25037;49.488;9.900;2022-08-19T14:44:57;4.80;;;3.65;;
39324;SDS011;25037;49.488;9.900;2022-08-19T14:47:24;8.45;;;6.32;;
39324;SDS011;25037;49.488;9.900;2022-08-19T14:49:49;9.35;;;7.20;;